createdAt,value
2022-12-07T00:04:37.051Z,13.40
2022-12-07T00:09:42.634Z,14.60
2022-12-07T00:14:47.820Z,13.20
2022-12-07T00:19:49.482Z,12.70
2022-12-07T00:24:51.260Z,13.00
2022-12-07T00:29:52.946Z,14.00
2022-12-07T00:34:54.570Z,12.50
2022-12-07T00:39:56.203Z,13.10
2022-12-07T00:44:57.885Z,14.60
2022-12-07T00:49:59.946Z,13.90
2022-12-07T00:55:01.880Z,13.50
2022-12-07T01:00:04.325Z,15.70
2022-12-07T01:05:06.452Z,14.50
2022-12-07T01:10:08.551Z,15.20
2022-12-07T01:15:10.573Z,17.40
2022-12-07T01:20:13.284Z,18.90
2022-12-07T01:25:14.916Z,16.00
2022-12-07T01:30:16.705Z,14.90
2022-12-07T01:35:18.339Z,16.80
2022-12-07T01:40:19.994Z,16.30
2022-12-07T01:45:39.751Z,15.70
2022-12-07T01:50:43.719Z,15.70
2022-12-07T01:55:48.585Z,14.20
2022-12-07T02:00:50.430Z,15.20
2022-12-07T02:05:53.168Z,17.20
2022-12-07T02:10:55.961Z,16.70
2022-12-07T02:16:18.752Z,16.20
2022-12-07T02:21:40.445Z,16.60
2022-12-07T02:27:11.530Z,17.10
2022-12-07T02:32:38.038Z,19.80
2022-12-07T02:38:11.404Z,15.70
2022-12-07T02:43:21.584Z,16.90
2022-12-07T02:48:24.185Z,14.80
2022-12-07T02:53:37.549Z,14.30
2022-12-07T02:59:05.744Z,12.90
2022-12-07T03:04:34.616Z,14.80
2022-12-07T03:09:52.446Z,13.20
2022-12-07T03:15:02.018Z,12.20
2022-12-07T03:20:07.170Z,11.40
2022-12-07T03:25:12.797Z,13.30
2022-12-07T03:30:21.912Z,11.90
2022-12-07T03:35:31.433Z,11.20
2022-12-07T03:40:41.295Z,12.80
2022-12-07T03:45:48.105Z,13.00
2022-12-07T03:50:55.991Z,11.40
2022-12-07T03:55:59.173Z,12.70
2022-12-07T04:01:01.037Z,12.00
2022-12-07T04:06:02.858Z,10.80
2022-12-07T04:11:04.580Z,11.00
2022-12-07T04:16:06.428Z,10.70
2022-12-07T04:21:08.291Z,10.40
2022-12-07T04:26:10.107Z,10.70
2022-12-07T04:31:11.826Z,12.10
2022-12-07T04:36:13.651Z,10.50
2022-12-07T04:41:15.401Z,11.20
2022-12-07T04:46:17.157Z,10.60
2022-12-07T04:51:25.394Z,11.10
2022-12-07T04:56:27.148Z,9.90
2022-12-07T05:01:29.088Z,10.10
2022-12-07T05:06:30.753Z,8.10
2022-12-07T05:11:41.849Z,7.80
2022-12-07T05:16:45.473Z,8.90
2022-12-07T05:21:47.499Z,8.80
2022-12-07T05:26:49.187Z,7.70
2022-12-07T05:31:50.861Z,8.50
2022-12-07T05:36:52.624Z,8.00
2022-12-07T05:42:13.158Z,7.40
2022-12-07T05:47:16.175Z,6.90
2022-12-07T05:52:17.933Z,7.00
2022-12-07T05:57:20.249Z,8.30
2022-12-07T06:02:21.941Z,8.40
2022-12-07T06:07:23.674Z,8.20
2022-12-07T06:12:39.757Z,9.00
2022-12-07T06:17:41.831Z,8.30
2022-12-07T06:22:43.477Z,9.60
2022-12-07T06:27:45.125Z,9.90
2022-12-07T06:32:46.764Z,7.70
2022-12-07T06:37:48.410Z,9.10
2022-12-07T06:42:50.064Z,10.10
2022-12-07T06:47:51.835Z,9.70
2022-12-07T06:52:53.943Z,9.90
2022-12-07T06:57:55.591Z,9.70
2022-12-07T07:02:57.313Z,8.40
2022-12-07T07:08:21.346Z,8.20
2022-12-07T07:13:20.784Z,8.50
2022-12-07T07:18:23.036Z,8.70
2022-12-07T07:23:24.848Z,7.70
2022-12-07T07:28:26.550Z,8.20
2022-12-07T07:33:28.305Z,7.30
2022-12-07T07:38:30.045Z,7.20
2022-12-07T07:43:31.813Z,6.70
2022-12-07T07:48:33.489Z,6.30
2022-12-07T07:53:35.544Z,5.80
2022-12-07T07:58:37.280Z,5.90
2022-12-07T08:03:38.973Z,5.00
2022-12-07T08:08:40.711Z,5.60
2022-12-07T08:13:42.338Z,5.90
2022-12-07T08:18:44.588Z,6.90
2022-12-07T08:23:46.395Z,7.80
2022-12-07T08:28:48.139Z,7.50
2022-12-07T08:33:49.920Z,9.00
2022-12-07T08:39:29.206Z,8.50
2022-12-07T08:44:13.591Z,8.50
2022-12-07T08:49:24.939Z,8.20
2022-12-07T08:54:27.612Z,9.90
2022-12-07T08:59:29.955Z,11.60
2022-12-07T09:04:31.643Z,11.80
2022-12-07T09:09:33.913Z,12.80
2022-12-07T09:14:35.887Z,13.10
2022-12-07T09:19:38.378Z,15.00
2022-12-07T09:24:40.119Z,12.70
2022-12-07T09:29:41.795Z,10.80
2022-12-07T09:34:43.527Z,12.70
2022-12-07T09:40:01.874Z,10.90
2022-12-07T09:45:07.839Z,9.80
2022-12-07T09:50:20.034Z,11.60
2022-12-07T09:55:30.444Z,9.90
2022-12-07T10:00:32.135Z,10.60
2022-12-07T10:05:39.354Z,8.80
2022-12-07T10:10:41.255Z,8.40
2022-12-07T10:15:50.896Z,8.10
2022-12-07T10:21:08.562Z,8.60
2022-12-07T10:26:33.060Z,8.00
2022-12-07T10:31:40.509Z,7.10
2022-12-07T10:36:42.198Z,5.90
2022-12-07T10:41:58.856Z,7.70
2022-12-07T10:47:21.373Z,7.20
2022-12-07T10:52:39.646Z,6.10
2022-12-07T10:58:22.993Z,9.10
2022-12-07T11:03:46.137Z,6.30
2022-12-07T11:09:06.624Z,6.10
2022-12-07T11:14:42.665Z,6.50
2022-12-07T11:20:01.225Z,6.40
2022-12-07T11:25:14.305Z,5.60
2022-12-07T11:30:49.504Z,5.50
2022-12-07T11:36:24.450Z,5.40
2022-12-07T11:41:38.790Z,5.40
2022-12-07T11:46:59.836Z,4.80
2022-12-07T11:52:05.131Z,5.70
2022-12-07T11:57:20.199Z,4.30
2022-12-07T12:02:29.677Z,3.60
2022-12-07T12:18:49.872Z,4.10
2022-12-07T12:24:00.536Z,4.00
2022-12-07T12:29:09.774Z,4.00
2022-12-07T12:35:01.030Z,3.80
2022-12-07T12:40:17.805Z,3.70
2022-12-07T12:45:19.640Z,2.90
2022-12-07T12:50:25.673Z,3.50
2022-12-07T12:55:45.894Z,3.40
2022-12-07T13:00:49.946Z,3.40
2022-12-07T13:06:33.024Z,2.70
2022-12-07T13:11:44.445Z,2.70
2022-12-07T13:16:46.219Z,2.80
2022-12-07T13:21:48.038Z,3.20
2022-12-07T13:26:49.774Z,3.40
2022-12-07T13:31:57.025Z,3.50
2022-12-07T13:37:02.479Z,3.50
2022-12-07T13:42:17.420Z,3.50
2022-12-07T13:47:43.088Z,3.90
2022-12-07T13:52:46.504Z,4.20
2022-12-07T13:57:52.427Z,5.00
2022-12-07T14:02:58.382Z,4.90
2022-12-07T14:08:02.844Z,5.50
2022-12-07T14:13:38.830Z,5.60
2022-12-07T14:18:41.907Z,4.90
2022-12-07T14:23:43.810Z,5.10
2022-12-07T14:28:46.096Z,4.10
2022-12-07T14:33:47.893Z,4.10
2022-12-07T14:38:49.619Z,4.70
2022-12-07T14:44:21.407Z,4.30
2022-12-07T14:54:35.163Z,5.80
2022-12-07T14:59:39.283Z,6.60
2022-12-07T15:04:45.192Z,7.10
2022-12-07T15:09:47.610Z,6.80
2022-12-07T15:14:49.346Z,6.50
2022-12-07T15:19:51.025Z,6.60
2022-12-07T15:24:52.665Z,4.80
2022-12-07T15:29:54.908Z,4.90
2022-12-07T15:34:57.128Z,4.90
2022-12-07T15:40:02.659Z,5.50
2022-12-07T15:45:09.959Z,5.20
2022-12-07T15:50:15.221Z,6.40
2022-12-07T15:55:16.933Z,4.20
2022-12-07T16:00:19.728Z,3.80
2022-12-07T16:05:21.704Z,3.60
2022-12-07T16:10:23.521Z,21.60
2022-12-07T16:15:26.522Z,7.10
2022-12-07T16:20:28.225Z,4.70
2022-12-07T16:25:29.912Z,4.40
2022-12-07T16:30:32.187Z,4.20
2022-12-07T16:35:34.114Z,4.40
2022-12-07T16:40:35.865Z,5.20
2022-12-07T16:45:37.956Z,5.00
2022-12-07T16:50:44.447Z,5.50
2022-12-07T16:55:50.172Z,4.90
2022-12-07T17:00:52.670Z,5.90
2022-12-07T17:05:54.361Z,6.00
2022-12-07T17:10:56.015Z,5.80
2022-12-07T17:16:03.829Z,5.30
2022-12-07T17:21:08.351Z,5.30
2022-12-07T17:26:24.665Z,4.40
2022-12-07T17:31:27.019Z,6.20
2022-12-07T17:36:31.108Z,6.10
2022-12-07T17:41:51.401Z,6.30
2022-12-07T17:52:16.025Z,6.70
2022-12-07T17:57:18.269Z,7.70
2022-12-07T18:02:20.044Z,7.60
2022-12-07T18:07:21.804Z,8.80
2022-12-07T18:12:23.661Z,7.90
2022-12-07T18:17:25.518Z,8.20
2022-12-07T18:22:28.078Z,8.10
2022-12-07T18:27:29.941Z,6.90
2022-12-07T18:32:31.646Z,7.50
2022-12-07T18:37:34.125Z,5.90
2022-12-07T18:42:35.823Z,6.40
2022-12-07T18:47:37.524Z,6.50
2022-12-07T18:52:39.246Z,6.80
2022-12-07T18:57:40.942Z,5.50
2022-12-07T19:02:43.680Z,5.40
2022-12-07T19:07:46.540Z,6.00
2022-12-07T19:12:49.091Z,5.40
2022-12-07T19:17:50.873Z,6.30
2022-12-07T19:22:52.699Z,6.70
2022-12-07T19:27:54.343Z,6.00
2022-12-07T19:32:56.227Z,6.60
2022-12-07T19:37:58.073Z,8.50
2022-12-07T19:42:59.775Z,9.10
2022-12-07T19:48:01.494Z,8.50
2022-12-07T19:53:03.264Z,9.40
2022-12-07T19:58:04.966Z,7.80
2022-12-07T20:03:06.802Z,10.40
2022-12-07T20:08:09.317Z,8.60
2022-12-07T20:13:29.375Z,10.40
2022-12-07T20:18:31.187Z,9.50
2022-12-07T20:23:33.503Z,9.30
2022-12-07T20:28:35.360Z,12.10
2022-12-07T20:33:38.131Z,11.60
2022-12-07T20:38:40.707Z,13.10
2022-12-07T20:43:43.287Z,13.20
2022-12-07T20:48:45.012Z,12.80
2022-12-07T20:53:46.876Z,12.10
2022-12-07T20:58:49.276Z,10.20
2022-12-07T21:03:55.431Z,11.50
2022-12-07T21:08:59.422Z,10.10
2022-12-07T21:14:01.703Z,8.60
2022-12-07T21:19:05.077Z,8.40
2022-12-07T21:24:08.637Z,9.70
2022-12-07T21:29:10.409Z,7.90
2022-12-07T21:34:12.117Z,8.30
2022-12-07T21:39:14.168Z,7.20
2022-12-07T21:44:16.085Z,6.90
2022-12-07T21:49:17.766Z,6.50
2022-12-07T21:54:25.464Z,6.90
2022-12-07T21:59:27.660Z,6.60
2022-12-07T22:04:29.339Z,6.40
2022-12-07T22:09:31.222Z,5.90
2022-12-07T22:14:53.973Z,6.40
2022-12-07T22:19:55.677Z,8.30
2022-12-07T22:24:57.441Z,9.10
2022-12-07T22:29:59.237Z,9.70
2022-12-07T22:35:01.250Z,10.00
2022-12-07T22:40:03.664Z,9.20
2022-12-07T22:45:05.896Z,9.20
2022-12-07T22:50:08.515Z,9.20
2022-12-07T22:55:11.761Z,8.30
2022-12-07T23:00:14.235Z,8.10
2022-12-07T23:05:16.012Z,7.00
2022-12-07T23:10:18.384Z,8.30
2022-12-07T23:15:20.064Z,7.70
2022-12-07T23:20:21.819Z,7.10
2022-12-07T23:25:23.530Z,7.20
2022-12-07T23:30:25.272Z,7.00
2022-12-07T23:35:27.043Z,8.30
2022-12-07T23:40:29.255Z,6.80
2022-12-07T23:45:31.031Z,8.40
2022-12-07T23:50:33.888Z,7.20
2022-12-07T23:55:35.606Z,6.20
